KCNO/CNO METAR and TAF weather

Enter ICAO airport designator
Station Type Date Time Source
KCNO METAR 2019/04/18 20:53 UTC NOAA

KCNO 182053Z 23007KT 10SM SCT200 30/11 A3005 RMK AO2 SLP172 T03000106 57017


Station Type Date Time Source
KCNO Decoded METAR 2019/04/18 20:53 UTC NOAA

CHINO AIRPORT, CA, United States (KCNO) 33-58N 117-38W 207M
Apr 18, 2019 - 04:53 PM EDT / 2019.04.18 2053 UTC
Wind: from the SW (230 degrees) at 8 MPH (7 KT):0
Visibility: 10 mile(s):0
Sky conditions: partly cloudy
Temperature: 86.0 F (30.0 C)
Dew Point: 51.1 F (10.6 C)
Relative Humidity: 30%
Pressure (altimeter): 30.05 in. Hg (1017 hPa)
Pressure tendency: 0.05 inches (1.7 hPa) lower than three hours ago
ob: KCNO 182053Z 23007KT 10SM SCT200 30/11 A3005 RMK AO2 SLP172 T03000106 57017
cycle: 21

Station Type Date Time Source
KCNO TAF UTC NOAA

Error!

Example: see airport list